Time;durP1;ratioP1;P1;durP2;ratioP2;P2;SDS_P1;SDS_P2;PMS_P1;PMS_P2;Temp;Humidity;BMP_temperature;BMP_pressure;BME280_temperature;BME280_humidity;BME280_pressure;Samples;Min_cycle;Max_cycle;Signal;HPM_P1;HPM_P2
2021/11/19 00:01:16;;;;;;;29.45;15.73;;;13.00;81.70;;;;;;5083241;28;20209;-82
2021/11/19 00:03:43;;;;;;;27.20;16.40;;;12.90;82.10;;;;;;5088147;28;20199;-81
2021/11/19 00:06:09;;;;;;;31.95;16.02;;;12.80;82.30;;;;;;5081868;28;20266;-82
2021/11/19 00:08:35;;;;;;;24.08;14.70;;;12.80;82.40;;;;;;5099597;28;20899;-81
2021/11/19 00:11:05;;;;;;;32.42;17.65;;;12.90;82.70;;;;;;5080396;28;20179;-81
2021/11/19 00:13:31;;;;;;;30.73;18.27;;;12.90;82.70;;;;;;5098275;28;20188;-82
2021/11/19 00:15:59;;;;;;;32.35;18.55;;;13.00;82.60;;;;;;5080370;28;20215;-82
2021/11/19 00:18:25;;;;;;;28.17;15.70;;;12.90;82.70;;;;;;5098319;28;20598;-81
2021/11/19 00:20:51;;;;;;;34.40;18.20;;;13.00;82.80;;;;;;5080122;28;20222;-82
2021/11/19 00:23:17;;;;;;;29.23;16.92;;;13.00;82.80;;;;;;5080002;28;20422;-82
2021/11/19 00:25:44;;;;;;;34.40;18.97;;;12.80;82.90;;;;;;5080316;28;20183;-81
2021/11/19 00:28:11;;;;;;;34.55;17.40;;;12.90;83.10;;;;;;5098253;28;20421;-81
2021/11/19 00:30:38;;;;;;;33.13;18.17;;;13.00;82.90;;;;;;5098471;28;20201;-81
2021/11/19 00:33:05;;;;;;;27.60;18.02;;;12.80;83.00;;;;;;5080209;28;20179;-82
2021/11/19 00:35:32;;;;;;;30.85;17.75;;;13.00;83.10;;;;;;5082085;28;20238;-80
2021/11/19 00:37:59;;;;;;;36.00;18.00;;;12.90;83.00;;;;;;5109268;28;20191;-80
2021/11/19 00:40:41;;;;;;;29.38;16.90;;;12.90;83.10;;;;;;5097578;28;20172;-81
2021/11/19 00:43:08;;;;;;;34.53;19.60;;;12.90;83.10;;;;;;5098320;28;20168;-81
2021/11/19 00:45:35;;;;;;;37.72;18.60;;;12.80;83.10;;;;;;5094702;28;20200;-81
2021/11/19 00:48:02;;;;;;;33.83;17.77;;;12.50;83.50;;;;;;5080053;28;20179;-81
2021/11/19 00:50:33;;;;;;;41.35;17.45;;;12.60;84.00;;;;;;5080214;28;20176;-81
2021/11/19 00:53:00;;;;;;;33.35;17.77;;;12.50;84.10;;;;;;5081221;28;20164;-80
2021/11/19 00:55:26;;;;;;;32.10;16.75;;;12.50;84.30;;;;;;5099501;28;20286;-81
2021/11/19 00:57:52;;;;;;;44.70;20.95;;;12.60;84.40;;;;;;5090017;28;20191;-81
2021/11/19 01:00:25;;;;;;;34.90;17.92;;;12.60;84.40;;;;;;5096069;28;20183;-81
2021/11/19 01:02:51;;;;;;;39.40;18.40;;;12.60;84.40;;;;;;5088432;28;20195;-81
2021/11/19 01:05:17;;;;;;;30.60;17.57;;;12.60;84.40;;;;;;5084733;28;20195;-81
2021/11/19 01:07:43;;;;;;;28.08;16.38;;;12.70;84.60;;;;;;5098739;28;20237;-81
2021/11/19 01:10:17;;;;;;;30.13;17.40;;;12.70;84.30;;;;;;5101628;28;20180;-81
2021/11/19 01:12:43;;;;;;;45.08;17.65;;;12.60;84.30;;;;;;5083967;28;20426;-82
2021/11/19 01:15:24;;;;;;;33.05;18.30;;;12.60;84.20;;;;;;5083769;28;20203;-81
2021/11/19 01:18:14;;;;;;;29.58;16.77;;;12.80;84.20;;;;;;5086718;28;20175;-81
2021/11/19 01:20:51;;;;;;;36.55;17.00;;;12.70;84.10;;;;;;5102648;28;20288;-81
2021/11/19 01:23:21;;;;;;;34.22;17.60;;;12.80;84.20;;;;;;5119816;28;20159;-82
2021/11/19 01:25:51;;;;;;;27.13;16.27;;;12.70;84.00;;;;;;5121026;28;20190;-81
2021/11/19 01:28:17;;;;;;;33.80;18.63;;;12.70;84.10;;;;;;5107557;28;20174;-81
2021/11/19 01:30:59;;;;;;;32.10;18.30;;;12.70;84.10;;;;;;5084673;28;20234;-82
2021/11/19 01:33:26;;;;;;;34.90;17.98;;;12.70;84.30;;;;;;5107111;28;20184;-81
2021/11/19 01:35:53;;;;;;;33.78;18.90;;;12.70;84.10;;;;;;5084149;28;20226;-81
2021/11/19 01:38:20;;;;;;;29.60;17.20;;;12.70;84.30;;;;;;5103305;28;20176;-81
2021/11/19 01:40:52;;;;;;;34.17;17.30;;;12.70;84.40;;;;;;5107954;28;20195;-82
2021/11/19 01:43:18;;;;;;;35.92;20.85;;;12.70;84.60;;;;;;5098563;28;20179;-82
2021/11/19 01:45:47;;;;;;;30.57;17.50;;;12.50;84.60;;;;;;5099726;28;20183;-83
2021/11/19 01:48:17;;;;;;;30.33;18.90;;;12.40;84.80;;;;;;5099982;28;20207;-82
2021/11/19 01:50:43;;;;;;;32.65;18.70;;;12.50;84.90;;;;;;5088676;28;20183;-82
2021/11/19 01:53:17;;;;;;;30.50;18.47;;;12.60;84.90;;;;;;5099506;28;20263;-82
2021/11/19 01:55:50;;;;;;;41.40;20.55;;;12.60;84.90;;;;;;5081737;28;20315;-82
2021/11/19 01:58:21;;;;;;;33.85;18.52;;;12.50;85.00;;;;;;5081707;28;20201;-82
2021/11/19 02:01:07;;;;;;;34.97;18.52;;;12.50;85.30;;;;;;5099218;28;20164;-81
2021/11/19 02:03:37;;;;;;;33.85;18.98;;;12.60;85.10;;;;;;5080534;28;20202;-83
2021/11/19 02:06:09;;;;;;;42.50;19.60;;;12.50;85.20;;;;;;5081071;28;20172;-82
2021/11/19 02:08:39;;;;;;;29.35;18.20;;;12.50;85.40;;;;;;5080102;28;20263;-81
2021/11/19 02:11:35;;;;;;;29.15;17.95;;;12.50;86.30;;;;;;5080219;28;20199;-82
2021/11/19 02:14:16;;;;;;;37.92;20.05;;;12.50;85.50;;;;;;5097043;28;20238;-81
2021/11/19 02:16:48;;;;;;;31.38;18.92;;;12.50;85.60;;;;;;5079785;28;20548;-82
2021/11/19 02:19:16;;;;;;;39.97;20.00;;;12.60;85.40;;;;;;5081822;28;20195;-82
2021/11/19 02:21:49;;;;;;;38.45;19.40;;;12.50;85.20;;;;;;5082930;28;20254;-82
2021/11/19 02:24:17;;;;;;;35.30;20.83;;;12.50;85.40;;;;;;5084315;28;20537;-81
2021/11/19 02:27:04;;;;;;;30.52;19.35;;;12.60;85.30;;;;;;5084770;28;20183;-81
2021/11/19 02:29:41;;;;;;;35.08;19.50;;;12.60;85.40;;;;;;5084826;28;20188;-83
2021/11/19 02:32:11;;;;;;;40.90;18.88;;;12.70;85.20;;;;;;5077080;28;20266;-81
2021/11/19 02:34:38;;;;;;;33.75;20.08;;;12.70;85.00;;;;;;5084039;28;20262;-82
2021/11/19 02:37:08;;;;;;;33.08;19.23;;;12.70;84.90;;;;;;5077937;28;20195;-82
2021/11/19 02:39:50;;;;;;;26.90;19.15;;;12.70;84.90;;;;;;5096041;28;20174;-82
2021/11/19 02:42:26;;;;;;;41.40;21.95;;;12.80;84.70;;;;;;5099543;28;20251;-81
2021/11/19 02:44:55;;;;;;;37.85;20.25;;;12.80;84.50;;;;;;5098715;28;20204;-80
2021/11/19 02:47:24;;;;;;;29.75;18.85;;;12.80;84.60;;;;;;5079353;28;20172;-82
2021/11/19 02:49:51;;;;;;;31.25;18.00;;;12.90;84.60;;;;;;5081094;28;20222;-82
2021/11/19 02:52:21;;;;;;;28.45;18.05;;;12.80;84.30;;;;;;5080940;28;20187;-81
2021/11/19 02:54:48;;;;;;;45.10;22.33;;;12.70;84.50;;;;;;5080416;28;20290;-82
2021/11/19 02:57:16;;;;;;;34.03;19.55;;;12.70;84.70;;;;;;5092268;28;20172;-82
2021/11/19 02:59:42;;;;;;;36.40;20.15;;;12.70;84.90;;;;;;5099537;28;20180;-82
2021/11/19 03:02:12;;;;;;;42.88;19.23;;;12.70;84.90;;;;;;5081190;28;20172;-82
2021/11/19 03:04:43;;;;;;;40.92;17.75;;;12.70;85.00;;;;;;5080399;28;20208;-82
2021/11/19 03:07:09;;;;;;;41.42;21.40;;;12.90;84.70;;;;;;5081026;28;20171;-81
2021/11/19 03:09:42;;;;;;;27.80;17.70;;;13.00;84.30;;;;;;5080360;28;20172;-82
2021/11/19 03:12:10;;;;;;;35.08;20.63;;;13.00;84.00;;;;;;5081047;28;20552;-82
2021/11/19 03:14:36;;;;;;;34.13;19.63;;;13.00;84.00;;;;;;5063140;28;20276;-81
2021/11/19 03:17:04;;;;;;;40.47;20.92;;;13.00;84.00;;;;;;5080451;28;20182;-81
2021/11/19 03:19:30;;;;;;;39.63;21.92;;;12.80;84.10;;;;;;5080798;28;20642;-82
2021/11/19 03:21:57;;;;;;;46.75;20.38;;;12.80;84.30;;;;;;5080675;28;20184;-81
2021/11/19 03:24:24;;;;;;;35.80;18.80;;;12.80;84.40;;;;;;5098492;28;20237;-81
2021/11/19 03:26:51;;;;;;;37.78;20.40;;;12.90;84.40;;;;;;5064304;28;20180;-81
2021/11/19 03:29:19;;;;;;;36.20;19.25;;;12.90;84.30;;;;;;5098723;28;20589;-81
2021/11/19 03:31:45;;;;;;;28.88;17.80;;;12.80;84.10;;;;;;5080011;28;20176;-82
2021/11/19 03:34:12;;;;;;;30.00;17.87;;;12.80;84.40;;;;;;5080306;28;20196;-82
2021/11/19 03:36:45;;;;;;;29.88;17.85;;;12.80;84.40;;;;;;5080759;28;20188;-81
2021/11/19 03:39:13;;;;;;;30.25;17.95;;;12.60;84.40;;;;;;5099046;28;20187;-81
2021/11/19 03:41:40;;;;;;;31.30;18.98;;;12.70;84.90;;;;;;5081317;28;20168;-81
2021/11/19 03:44:13;;;;;;;29.08;18.20;;;12.80;84.70;;;;;;5081525;28;20211;-81
2021/11/19 03:46:53;;;;;;;33.75;19.02;;;12.80;84.60;;;;;;5083862;28;20179;-82
2021/11/19 03:49:20;;;;;;;30.20;18.33;;;12.80;84.60;;;;;;5084682;28;20179;-82
2021/11/19 03:51:50;;;;;;;28.73;18.45;;;12.80;84.40;;;;;;5084059;28;20172;-82
2021/11/19 03:54:18;;;;;;;37.35;17.52;;;12.70;84.60;;;;;;5099272;28;20639;-81
2021/11/19 03:56:44;;;;;;;33.38;19.42;;;12.60;84.70;;;;;;5081696;28;20187;-82
2021/11/19 03:59:11;;;;;;;31.83;18.80;;;12.70;85.00;;;;;;5099900;28;20296;-82
2021/11/19 04:01:41;;;;;;;36.60;19.15;;;12.70;84.90;;;;;;5082092;28;20180;-82
2021/11/19 04:04:09;;;;;;;31.00;18.13;;;12.70;84.90;;;;;;5081218;28;20199;-81
2021/11/19 04:06:35;;;;;;;33.65;18.40;;;12.80;84.80;;;;;;5082879;28;20176;-82
2021/11/19 04:09:02;;;;;;;27.50;17.10;;;12.70;84.70;;;;;;5112306;28;20239;-82
2021/11/19 04:11:28;;;;;;;26.90;17.73;;;12.80;84.60;;;;;;5111732;28;20243;-81
2021/11/19 04:13:54;;;;;;;32.40;18.57;;;12.70;84.50;;;;;;5077237;28;20219;-82
2021/11/19 04:16:30;;;;;;;31.25;17.90;;;12.70;84.70;;;;;;5094049;28;20540;-81
2021/11/19 04:18:57;;;;;;;31.77;19.73;;;12.70;84.80;;;;;;5094374;28;20182;-82
2021/11/19 04:21:23;;;;;;;39.10;18.02;;;12.60;84.90;;;;;;5092178;28;20180;-81
2021/11/19 04:23:51;;;;;;;35.15;18.55;;;12.60;85.10;;;;;;5079705;28;20201;-82
2021/11/19 04:26:18;;;;;;;30.48;17.55;;;12.70;85.30;;;;;;5078997;28;20180;-82
2021/11/19 04:28:46;;;;;;;29.23;17.27;;;12.80;85.00;;;;;;5078896;28;20211;-81
2021/11/19 04:31:13;;;;;;;38.08;19.23;;;12.80;84.80;;;;;;5079228;28;20658;-81
2021/11/19 04:33:39;;;;;;;33.67;19.67;;;12.70;84.50;;;;;;5096081;28;20213;-81
2021/11/19 04:36:06;;;;;;;33.50;18.70;;;12.60;84.80;;;;;;5078667;28;20198;-82
2021/11/19 04:38:32;;;;;;;30.52;17.80;;;12.60;85.10;;;;;;5078939;28;20197;-82
2021/11/19 04:40:58;;;;;;;30.38;17.20;;;12.70;85.20;;;;;;5079434;28;20201;-82
2021/11/19 04:43:25;;;;;;;28.43;18.40;;;12.60;85.20;;;;;;5079548;28;20179;-81
2021/11/19 04:45:53;;;;;;;33.22;18.80;;;12.60;85.40;;;;;;5100915;28;20443;-82
2021/11/19 04:48:19;;;;;;;32.70;18.83;;;12.60;85.50;;;;;;5101517;28;20180;-81
2021/11/19 04:50:48;;;;;;;29.63;19.23;;;12.60;85.50;;;;;;5082456;28;20176;-81
2021/11/19 04:53:17;;;;;;;32.33;19.08;;;12.70;85.50;;;;;;5081535;28;20191;-82
2021/11/19 04:55:44;;;;;;;30.77;18.73;;;12.70;85.60;;;;;;5100679;28;20203;-82
2021/11/19 04:58:10;;;;;;;31.08;17.73;;;12.60;85.30;;;;;;5082564;28;20187;-82
2021/11/19 05:00:49;;;;;;;28.33;16.77;;;12.70;85.40;;;;;;5100562;28;20175;-82
2021/11/19 05:03:15;;;;;;;29.67;17.98;;;12.80;85.30;;;;;;5081995;28;20246;-83
2021/11/19 05:05:43;;;;;;;35.10;18.40;;;12.90;85.10;;;;;;5082032;28;20172;-82
2021/11/19 05:08:09;;;;;;;27.38;17.17;;;13.00;84.80;;;;;;5099896;28;20187;-82
2021/11/19 05:10:37;;;;;;;27.10;16.97;;;12.90;84.70;;;;;;5100170;28;20180;-82
2021/11/19 05:13:05;;;;;;;28.50;18.15;;;12.90;84.70;;;;;;5080829;28;20461;-82
2021/11/19 05:15:32;;;;;;;35.78;18.25;;;12.90;84.60;;;;;;5064612;28;20223;-82
2021/11/19 05:17:58;;;;;;;32.78;18.50;;;12.70;84.90;;;;;;5080918;28;20167;-81
2021/11/19 05:20:25;;;;;;;35.63;17.00;;;12.70;85.10;;;;;;5098228;28;20179;-81
2021/11/19 05:22:52;;;;;;;35.55;18.08;;;12.70;85.20;;;;;;5080851;28;20174;-81
2021/11/19 05:25:22;;;;;;;29.08;18.38;;;12.80;85.10;;;;;;5083544;28;20203;-81
2021/11/19 05:27:49;;;;;;;32.05;16.02;;;12.80;85.00;;;;;;5085032;28;20184;-81
2021/11/19 05:30:15;;;;;;;30.35;17.08;;;12.90;85.10;;;;;;5086131;28;20196;-82
2021/11/19 05:32:42;;;;;;;29.33;17.05;;;12.80;84.80;;;;;;5105275;28;20207;-82
2021/11/19 05:35:09;;;;;;;34.40;17.30;;;12.90;84.80;;;;;;5104097;28;20234;-82
2021/11/19 05:37:37;;;;;;;32.00;18.15;;;12.90;84.50;;;;;;5104387;28;20172;-82
2021/11/19 05:40:06;;;;;;;27.63;16.73;;;13.00;84.30;;;;;;5104169;28;20176;-82
2021/11/19 05:42:32;;;;;;;31.20;16.92;;;13.00;84.10;;;;;;5081337;28;20255;-81
2021/11/19 05:44:58;;;;;;;28.48;17.50;;;13.00;84.10;;;;;;5082321;28;20344;-83
2021/11/19 05:47:24;;;;;;;25.63;17.60;;;12.90;84.30;;;;;;5082074;28;20200;-82
2021/11/19 05:49:50;;;;;;;32.15;17.35;;;13.00;84.40;;;;;;5082370;28;20246;-81
2021/11/19 05:52:16;;;;;;;25.17;17.00;;;12.90;84.50;;;;;;5066099;28;20569;-82
2021/11/19 05:54:43;;;;;;;33.53;18.05;;;12.90;84.60;;;;;;5099456;28;20260;-82
2021/11/19 05:57:11;;;;;;;30.42;17.40;;;12.80;84.70;;;;;;5091678;28;20201;-82
2021/11/19 05:59:37;;;;;;;29.80;17.55;;;12.70;84.90;;;;;;5097363;28;20171;-82
2021/11/19 06:02:06;;;;;;;27.35;17.60;;;12.80;85.10;;;;;;5114923;28;20191;-82
2021/11/19 06:04:32;;;;;;;32.53;18.67;;;12.90;85.00;;;;;;5115635;28;20203;-81
2021/11/19 06:06:57;;;;;;;28.83;17.30;;;12.80;84.70;;;;;;5095622;28;20188;-81
2021/11/19 06:09:28;;;;;;;34.50;16.80;;;12.80;84.90;;;;;;5114930;28;20597;-81
2021/11/19 06:12:03;;;;;;;27.33;16.05;;;12.90;85.00;;;;;;5089240;28;20499;-81
2021/11/19 06:14:42;;;;;;;26.50;17.73;;;12.90;84.90;;;;;;5098957;28;20234;-81
2021/11/19 06:17:13;;;;;;;30.52;17.92;;;13.00;84.80;;;;;;5097883;28;20222;-81
2021/11/19 06:19:42;;;;;;;26.40;18.08;;;13.00;84.50;;;;;;5087073;28;20670;-81
2021/11/19 06:22:12;;;;;;;33.35;17.85;;;13.20;84.20;;;;;;5085010;28;20264;-82
2021/11/19 06:24:44;;;;;;;30.52;19.15;;;13.10;83.90;;;;;;5103065;28;20200;-82
2021/11/19 06:27:12;;;;;;;29.77;17.95;;;13.10;83.80;;;;;;5084511;28;20172;-81
2021/11/19 06:29:38;;;;;;;30.70;16.83;;;13.00;83.90;;;;;;5084434;28;20586;-82
2021/11/19 06:32:05;;;;;;;26.33;17.30;;;13.00;84.00;;;;;;5101420;28;20204;-81
2021/11/19 06:34:31;;;;;;;29.40;18.70;;;13.00;83.80;;;;;;5100935;28;20195;-82
2021/11/19 06:36:58;;;;;;;30.55;17.88;;;13.00;84.00;;;;;;5082734;28;20179;-82
2021/11/19 06:39:25;;;;;;;34.30;18.20;;;13.00;84.00;;;;;;5074088;28;20665;-81
2021/11/19 06:41:51;;;;;;;32.40;16.98;;;13.00;84.10;;;;;;5101113;28;20191;-82
2021/11/19 06:44:17;;;;;;;31.05;19.17;;;13.00;84.20;;;;;;5080579;28;20576;-82
2021/11/19 06:46:43;;;;;;;36.87;19.87;;;13.00;84.20;;;;;;5082502;28;20176;-82
2021/11/19 06:49:10;;;;;;;35.63;23.42;;;13.00;84.20;;;;;;5101825;28;20925;-82
2021/11/19 06:51:37;;;;;;;35.72;19.40;;;13.00;84.20;;;;;;5085948;28;20207;-82
2021/11/19 06:54:03;;;;;;;31.17;18.73;;;13.00;84.40;;;;;;5100085;28;20190;-82
2021/11/19 06:56:29;;;;;;;36.58;17.85;;;13.00;84.40;;;;;;5119749;28;20196;-81
2021/11/19 06:58:55;;;;;;;30.58;17.85;;;13.10;84.60;;;;;;5117010;28;20211;-82
2021/11/19 07:01:21;;;;;;;30.23;19.00;;;13.20;84.00;;;;;;5086074;28;20188;-81
2021/11/19 07:03:47;;;;;;;33.47;17.90;;;13.40;83.70;;;;;;5105358;28;20252;-82
2021/11/19 07:06:14;;;;;;;40.33;17.95;;;13.30;83.20;;;;;;5110755;28;20183;-81
2021/11/19 07:08:40;;;;;;;32.10;18.38;;;13.20;83.20;;;;;;5082782;28;20192;-81
2021/11/19 07:11:10;;;;;;;33.75;19.55;;;13.10;83.40;;;;;;5084339;28;20179;-82
2021/11/19 07:13:38;;;;;;;29.90;18.58;;;13.10;83.70;;;;;;5079501;28;20208;-81
2021/11/19 07:16:04;;;;;;;37.58;18.05;;;13.00;83.70;;;;;;5080461;28;20206;-82
2021/11/19 07:18:30;;;;;;;35.80;18.13;;;13.10;83.90;;;;;;5080758;28;20238;-82
2021/11/19 07:20:56;;;;;;;35.47;20.13;;;13.10;83.90;;;;;;5080501;28;20184;-82
2021/11/19 07:23:23;;;;;;;34.07;19.37;;;13.00;84.00;;;;;;5079670;28;20203;-81
2021/11/19 07:25:49;;;;;;;33.72;20.23;;;13.00;84.20;;;;;;5080809;28;20438;-82
2021/11/19 07:28:16;;;;;;;30.33;17.75;;;13.00;84.40;;;;;;5080946;28;20637;-81
2021/11/19 07:30:51;;;;;;;29.13;17.25;;;13.20;84.10;;;;;;5064373;28;20192;-81
2021/11/19 07:33:18;;;;;;;28.40;20.20;;;13.30;83.70;;;;;;5082527;28;20187;-82
2021/11/19 07:35:45;;;;;;;31.45;18.95;;;13.20;83.40;;;;;;5104399;28;20200;-82
2021/11/19 07:38:12;;;;;;;38.22;20.38;;;13.10;83.70;;;;;;5080895;28;20615;-81
2021/11/19 07:40:41;;;;;;;39.40;19.10;;;13.10;83.80;;;;;;5081379;28;20267;-81
2021/11/19 07:43:07;;;;;;;31.33;18.73;;;13.20;83.80;;;;;;5087191;28;20298;-82
2021/11/19 07:45:36;;;;;;;31.55;17.92;;;13.30;83.70;;;;;;5096200;28;20215;-81
2021/11/19 07:48:06;;;;;;;35.22;20.88;;;13.30;83.70;;;;;;5086478;28;20192;-82
2021/11/19 07:50:31;;;;;;;35.42;19.98;;;13.40;83.70;;;;;;5090224;28;20188;-81
2021/11/19 07:52:57;;;;;;;29.27;19.60;;;13.30;83.50;;;;;;5098558;28;20199;-82
2021/11/19 07:55:23;;;;;;;40.40;23.20;;;13.40;83.40;;;;;;5098401;28;20259;-81
2021/11/19 07:57:49;;;;;;;33.43;20.13;;;13.40;83.10;;;;;;5080099;28;20194;-81
2021/11/19 08:00:25;;;;;;;37.55;21.23;;;13.50;83.10;;;;;;5079770;28;20452;-81
2021/11/19 08:02:51;;;;;;;32.10;19.65;;;13.40;82.90;;;;;;5079464;28;20225;-81
2021/11/19 08:05:17;;;;;;;32.13;19.37;;;13.40;83.00;;;;;;5096253;28;20783;-81
2021/11/19 08:07:43;;;;;;;36.17;20.10;;;13.50;83.10;;;;;;5079062;28;20296;-81
2021/11/19 08:10:09;;;;;;;36.47;20.50;;;13.60;82.60;;;;;;5078843;28;20188;-81
2021/11/19 08:12:35;;;;;;;42.20;21.00;;;13.60;82.40;;;;;;5078652;28;20243;-81
2021/11/19 08:15:01;;;;;;;42.30;21.75;;;13.60;82.30;;;;;;5078203;28;20211;-81
2021/11/19 08:17:45;;;;;;;39.37;18.30;;;13.50;82.30;;;;;;5096048;28;20176;-81
2021/11/19 08:20:17;;;;;;;33.35;20.90;;;13.50;82.40;;;;;;5095796;28;20390;-81
2021/11/19 08:22:43;;;;;;;39.05;21.05;;;13.40;83.30;;;;;;5077787;28;20172;-81
2021/11/19 08:25:11;;;;;;;34.00;20.73;;;13.40;82.60;;;;;;5075408;28;20572;-81
2021/11/19 08:27:48;;;;;;;37.70;19.60;;;13.40;82.80;;;;;;5060390;28;20808;-81
2021/11/19 08:30:19;;;;;;;36.70;21.90;;;13.40;82.90;;;;;;5079513;28;20259;-81
2021/11/19 08:32:44;;;;;;;30.40;20.00;;;13.40;83.10;;;;;;5078661;28;20266;-81
2021/11/19 08:35:10;;;;;;;34.10;19.97;;;13.30;83.30;;;;;;5077846;28;20288;-81
2021/11/19 08:37:37;;;;;;;39.40;20.43;;;13.30;83.40;;;;;;5078217;28;20425;-82
2021/11/19 08:40:05;;;;;;;34.30;20.00;;;13.20;83.50;;;;;;5078216;28;20436;-81
2021/11/19 08:42:31;;;;;;;37.53;20.73;;;13.20;83.70;;;;;;5078069;28;20263;-81
2021/11/19 08:44:57;;;;;;;40.63;21.40;;;13.10;83.80;;;;;;5098527;28;20226;-81
2021/11/19 08:47:24;;;;;;;35.22;20.90;;;13.10;84.00;;;;;;5077506;28;20279;-81
2021/11/19 08:49:50;;;;;;;43.20;21.58;;;13.20;84.10;;;;;;5096952;28;20179;-81
2021/11/19 08:52:19;;;;;;;32.28;21.50;;;13.20;84.10;;;;;;5098969;28;20198;-81
2021/11/19 08:54:45;;;;;;;33.17;20.98;;;13.20;84.20;;;;;;5098556;28;20199;-80
2021/11/19 08:57:15;;;;;;;38.87;19.23;;;13.20;84.20;;;;;;5099533;28;20206;-81
2021/11/19 08:59:44;;;;;;;38.95;20.73;;;13.30;84.10;;;;;;5124004;28;20417;-81
2021/11/19 09:02:12;;;;;;;34.40;20.67;;;13.40;84.00;;;;;;5109149;28;20182;-81
2021/11/19 09:04:39;;;;;;;38.53;20.90;;;13.50;83.70;;;;;;5100612;28;20202;-80
2021/11/19 09:07:05;;;;;;;34.72;21.85;;;13.60;83.50;;;;;;5119000;28;20232;-81
2021/11/19 09:09:31;;;;;;;33.78;19.65;;;13.60;83.20;;;;;;5119062;28;20220;-81
2021/11/19 09:11:57;;;;;;;35.80;20.20;;;13.50;83.20;;;;;;5118465;28;20205;-81
2021/11/19 09:14:24;;;;;;;35.27;20.60;;;13.50;83.40;;;;;;5117937;28;20562;-81
2021/11/19 09:17:07;;;;;;;31.65;18.63;;;13.50;83.50;;;;;;5117364;28;20457;-81
2021/11/19 09:19:56;;;;;;;30.65;20.58;;;13.60;83.40;;;;;;5117911;28;20217;-81
2021/11/19 09:22:49;;;;;;;37.22;19.48;;;13.60;83.30;;;;;;5107155;28;20163;-81
2021/11/19 09:25:17;;;;;;;33.03;20.13;;;13.70;83.10;;;;;;5117346;28;20191;-81
2021/11/19 09:27:43;;;;;;;30.52;19.15;;;13.70;83.20;;;;;;5097822;28;20648;-81
2021/11/19 09:30:38;;;;;;;32.53;18.48;;;13.80;82.80;;;;;;5100264;28;20164;-81
2021/11/19 09:33:08;;;;;;;35.95;19.13;;;13.90;82.70;;;;;;5079573;28;20187;-82
2021/11/19 09:35:35;;;;;;;34.53;19.65;;;14.00;82.60;;;;;;5083414;28;20267;-81
2021/11/19 09:38:06;;;;;;;30.13;19.20;;;13.90;82.30;;;;;;5082587;28;20168;-81
2021/11/19 09:41:10;;;;;;;33.45;19.85;;;13.90;82.50;;;;;;5100859;28;20172;-81
2021/11/19 09:44:04;;;;;;;36.17;19.33;;;14.00;82.20;;;;;;5082406;28;20536;-81
2021/11/19 09:46:53;;;;;;;30.77;19.45;;;13.90;82.10;;;;;;5052880;28;20175;-81
2021/11/19 09:49:18;;;;;;;33.75;19.15;;;14.00;82.10;;;;;;5100923;28;20176;-82
2021/11/19 09:52:13;;;;;;;34.27;20.10;;;13.90;82.20;;;;;;5083007;28;20187;-81
2021/11/19 09:55:03;;;;;;;37.08;21.17;;;13.90;82.30;;;;;;5061640;28;20196;-81
2021/11/19 09:57:58;;;;;;;36.28;21.45;;;14.00;82.20;;;;;;5084594;28;20232;-81
2021/11/19 10:00:45;;;;;;;35.15;19.08;;;14.10;82.10;;;;;;5082422;28;20541;-81
2021/11/19 10:03:27;;;;;;;36.78;19.90;;;14.20;81.80;;;;;;5089092;28;20285;-81
2021/11/19 10:06:11;;;;;;;33.95;20.00;;;14.20;81.70;;;;;;5106555;28;20660;-81
2021/11/19 10:08:59;;;;;;;41.92;21.98;;;14.30;81.60;;;;;;5101265;28;20187;-81
2021/11/19 10:11:30;;;;;;;36.55;19.90;;;14.40;81.20;;;;;;5082755;28;20674;-81
2021/11/19 10:14:20;;;;;;;39.63;21.25;;;14.30;81.10;;;;;;5100459;28;20691;-80
2021/11/19 10:16:53;;;;;;;32.50;21.23;;;14.30;81.20;;;;;;5102340;28;20208;-80
2021/11/19 10:19:26;;;;;;;46.30;23.75;;;14.10;82.10;;;;;;5084395;28;20176;-80
2021/11/19 10:22:04;;;;;;;45.30;22.42;;;14.20;81.30;;;;;;5103084;28;20172;-79
2021/11/19 10:24:43;;;;;;;40.00;21.85;;;14.30;81.40;;;;;;5084116;28;20204;-80
2021/11/19 10:27:16;;;;;;;38.90;22.95;;;14.30;81.20;;;;;;5103145;28;20683;-80
2021/11/19 10:29:44;;;;;;;45.00;23.73;;;14.40;81.10;;;;;;5091658;28;20235;-80
2021/11/19 10:32:13;;;;;;;46.72;24.95;;;14.40;81.10;;;;;;5091352;28;20605;-80
2021/11/19 10:35:07;;;;;;;50.20;23.88;;;14.40;81.00;;;;;;5096880;28;20206;-80
2021/11/19 10:38:02;;;;;;;38.30;23.42;;;14.50;81.00;;;;;;5115477;28;20227;-80
2021/11/19 10:41:05;;;;;;;42.72;23.60;;;14.40;80.90;;;;;;5115404;28;20164;-80
2021/11/19 10:43:58;;;;;;;45.50;23.95;;;14.40;80.90;;;;;;5115441;28;20160;-80
2021/11/19 10:46:49;;;;;;;54.25;24.13;;;14.50;80.80;;;;;;5084922;28;20190;-82
2021/11/19 10:49:43;;;;;;;52.72;25.55;;;14.50;80.60;;;;;;5082275;28;20274;-80
2021/11/19 10:52:46;;;;;;;42.90;24.33;;;14.60;80.40;;;;;;5082055;28;20639;-80
2021/11/19 10:55:49;;;;;;;47.28;23.23;;;14.60;80.00;;;;;;5081286;28;20302;-80
2021/11/19 10:58:39;;;;;;;46.28;24.55;;;14.60;79.80;;;;;;5099619;28;20168;-80
2021/11/19 11:01:23;;;;;;;56.78;26.52;;;14.80;79.50;;;;;;5082015;28;20179;-80
2021/11/19 11:04:00;;;;;;;48.30;24.63;;;14.80;79.10;;;;;;5080540;28;20720;-80
2021/11/19 11:06:52;;;;;;;49.17;25.48;;;15.10;79.00;;;;;;5081070;28;20270;-81
2021/11/19 11:09:26;;;;;;;42.28;22.58;;;15.10;78.20;;;;;;5081167;28;20187;-81
2021/11/19 11:12:08;;;;;;;42.47;23.30;;;15.20;78.00;;;;;;5099293;28;20638;-80
2021/11/19 11:14:39;;;;;;;45.15;23.33;;;15.30;77.70;;;;;;5080599;28;20715;-80
2021/11/19 11:17:25;;;;;;;54.50;25.05;;;15.40;76.80;;;;;;5099375;28;20176;-80
2021/11/19 11:19:54;;;;;;;39.75;23.92;;;15.20;76.60;;;;;;5080934;28;20183;-80
2021/11/19 11:22:25;;;;;;;41.08;21.48;;;15.20;76.40;;;;;;5098715;28;20243;-80
2021/11/19 11:25:01;;;;;;;43.88;23.75;;;15.20;76.20;;;;;;5097718;28;20562;-80
2021/11/19 11:27:53;;;;;;;46.08;23.45;;;15.20;76.10;;;;;;5097584;28;20597;-80
2021/11/19 11:30:24;;;;;;;45.97;24.00;;;15.30;76.10;;;;;;5079392;28;20174;-80
2021/11/19 11:33:11;;;;;;;47.63;22.50;;;15.20;76.00;;;;;;5097125;28;20193;-80
2021/11/19 11:35:49;;;;;;;44.53;23.77;;;15.10;76.20;;;;;;5096328;28;20302;-81
2021/11/19 11:38:29;;;;;;;43.90;23.88;;;15.10;76.50;;;;;;5076819;28;20229;-81
2021/11/19 11:41:13;;;;;;;40.35;23.02;;;15.20;76.60;;;;;;5098116;28;20209;-80
2021/11/19 11:43:41;;;;;;;43.45;22.80;;;15.20;76.50;;;;;;5081606;28;20750;-80
2021/11/19 11:46:15;;;;;;;42.90;22.40;;;15.20;76.40;;;;;;5100774;28;20266;-80
2021/11/19 11:48:56;;;;;;;53.80;24.73;;;15.40;76.40;;;;;;5101549;28;20212;-81
2021/11/19 11:51:31;;;;;;;42.47;23.13;;;15.50;76.20;;;;;;5101234;28;20160;-80
2021/11/19 11:54:18;;;;;;;46.50;22.67;;;15.30;75.90;;;;;;5101522;28;20202;-80
2021/11/19 11:56:47;;;;;;;45.28;23.15;;;15.40;75.80;;;;;;5114626;28;20210;-80
2021/11/19 11:59:18;;;;;;;45.47;21.90;;;15.50;75.90;;;;;;5103612;28;20544;-80
2021/11/19 12:01:51;;;;;;;46.90;23.98;;;15.60;75.50;;;;;;5080276;28;20176;-81
2021/11/19 12:04:39;;;;;;;41.40;19.40;;;15.70;75.50;;;;;;5100853;28;20282;-80
2021/11/19 12:07:11;;;;;;;38.38;19.73;;;15.70;75.10;;;;;;5099950;28;20171;-80
2021/11/19 12:09:41;;;;;;;45.10;20.70;;;15.80;75.00;;;;;;5099987;28;20261;-80
2021/11/19 12:12:29;;;;;;;27.83;16.77;;;15.80;74.80;;;;;;5100205;28;20180;-80
2021/11/19 12:15:13;;;;;;;48.47;20.13;;;15.80;74.30;;;;;;5099251;28;20236;-80
2021/11/19 12:17:42;;;;;;;40.20;18.20;;;15.80;74.30;;;;;;5100242;28;20168;-79
2021/11/19 12:20:49;;;;;;;36.08;16.17;;;15.80;73.90;;;;;;5099482;28;20176;-80
2021/11/19 12:23:21;;;;;;;27.00;14.50;;;15.90;73.50;;;;;;5020670;28;20212;-81
2021/11/19 12:26:11;;;;;;;33.88;14.07;;;15.90;72.40;;;;;;5092273;28;20187;-80
2021/11/19 12:28:41;;;;;;;29.67;14.10;;;15.80;72.00;;;;;;5103198;28;20182;-80
2021/11/19 12:31:41;;;;;;;26.88;11.80;;;15.80;72.10;;;;;;5103558;28;20212;-80
2021/11/19 12:34:24;;;;;;;26.08;12.05;;;15.80;72.00;;;;;;5103169;28;20207;-80
2021/11/19 12:37:03;;;;;;;29.80;12.55;;;15.80;71.80;;;;;;5098124;28;20190;-79
2021/11/19 12:39:33;;;;;;;37.00;12.18;;;15.80;71.70;;;;;;5077847;28;20542;-80
2021/11/19 12:42:13;;;;;;;25.38;10.00;;;15.80;71.60;;;;;;5095650;28;20160;-80
2021/11/19 12:44:50;;;;;;;20.98;11.20;;;15.70;71.10;;;;;;5071078;28;20199;-80
2021/11/19 12:47:59;;;;;;;25.77;9.57;;;15.70;71.20;;;;;;5081069;28;20290;-80
2021/11/19 12:50:38;;;;;;;23.58;7.90;;;15.40;71.00;;;;;;5042399;28;20211;-80
2021/11/19 12:53:22;;;;;;;26.30;9.02;;;15.20;71.40;;;;;;5079814;28;20251;-80